Aeroporto :
LOGIN :

Iscrizione | Disclaimer

   EN    FR    IT 

 










Sommario :    VFR   VFR Marginale   IFR   IFR Intensivo   IFR Molto Intensivo
Visibilità : 
Base nubi : 
>= 8 km
>= 3000ft
5 / 8 km
1000 / 3000 ft
1500m / 5 km
500 / 1000 ft
800 / 1500m
200 / 500 ft
< 800m
< 200 ft
Simboli :   Temporali  Nebbia  Neve Forte  Precipitazioni Forti  Vento > 20 kt
SIGMETs :   Varie  Temporali  Ghiacco  Turbolenza  Onda orograficha  Ceneri Vulcaniche






- Altitudine del aeroporto : 358 ft


EGTC - Cranfield

ULTIMO METAR :
  • 201720Z 27009KT CAVOK 05/02 Q1012

METARs OBSOLETI :
  • 201650Z 28014G27KT CAVOK 06/02 Q1011
  • 201620Z 27013KT 9999 FEW018 06/03 Q1010
  • 201550Z 27015KT 9999 BKN018 06/04 Q1009
  • 201450Z 26013KT 9999 SCT014 06/06 Q1007
  • 201420Z 25010KT 9999 SCT016 06/06 Q1007

TAF TAF EGTC
Valido dal 20 a 15 ore il 20 a 19 ore UTC


201405Z 2015/2019 27014KT 9999 BKN016
TEMPO 2015/2016 8000 RA
PROB30
TEMPO 2015/2018 28016G32KT 4000 SHRA BKN012TCU
BECMG 2018/2019 CAVOK



MetMap, La meteo Aeronautica in un colpo d'occhio ! - Copyright ORBIFLY Dicembre 2007 - Disclaimer

ORBIFLY MET'MAP TEAM :

Programmazione e sviluppo : Alexandra Zaïnal
Concezione : Baudouin d'Aumeries
Aiuto per la programmazione : Marc-Olivier Méhu
Supporto tecnico e logistico : Manuel Goepfert
Aiuto per la traduzione : Arnaldo La Scala

Contatto : metmap@orbifly.com




FONTI E CREDITI :

   NOAA